Time;durP1;ratioP1;P1;durP2;ratioP2;P2;SDS_P1;SDS_P2;PMS_P1;PMS_P2;Temp;Humidity;BMP_temperature;BMP_pressure;BME280_temperature;BME280_humidity;BME280_pressure;Samples;Min_cycle;Max_cycle;Signal;HPM_P1;HPM_P2
2022/05/30 04:33:19;;;;;;;;;3.00;3.00;;;;;13.25;56.03;100916.53;5058512;28;45250;-66
2022/05/30 04:35:45;;;;;;;;;4.75;4.00;;;;;13.20;56.02;100919.44;5060678;28;45320;-66
2022/05/30 04:38:10;;;;;;;;;3.00;3.00;;;;;13.24;55.76;100915.66;5060030;28;45490;-67
2022/05/30 04:40:35;;;;;;;;;4.00;4.00;;;;;13.20;55.31;100919.44;5064698;28;46298;-67
2022/05/30 04:43:01;;;;;;;;;6.50;5.25;;;;;13.20;55.60;100915.88;5059372;28;45265;-67
2022/05/30 04:45:26;;;;;;;;;3.50;3.50;;;;;13.19;55.48;100903.38;5060368;28;45320;-67
2022/05/30 04:47:52;;;;;;;;;6.00;4.50;;;;;13.19;56.13;100911.44;5060337;28;45305;-68
2022/05/30 04:50:17;;;;;;;;;4.00;4.00;;;;;13.21;56.37;100909.56;5059860;28;46054;-66
2022/05/30 04:52:44;;;;;;;;;4.50;4.50;;;;;13.28;55.81;100919.03;5060075;28;45359;-67
2022/05/30 04:55:11;;;;;;;;;6.50;5.25;;;;;13.30;55.52;100921.66;5059910;28;45260;-66
2022/05/30 04:57:43;;;;;;;;;4.25;4.25;;;;;13.29;55.33;100910.00;5059145;28;45415;-68
2022/05/30 05:00:11;;;;;;;;;7.00;4.75;;;;;13.31;55.23;100909.94;5059191;28;45396;-67
2022/05/30 05:02:36;;;;;;;;;4.75;3.50;;;;;13.36;55.10;100915.91;5059681;28;45324;-67
2022/05/30 05:05:02;;;;;;;;;3.75;3.75;;;;;13.31;55.38;100918.00;5041774;28;45400;-67
2022/05/30 05:07:39;;;;;;;;;5.25;5.25;;;;;13.33;55.31;100926.88;5060108;28;45511;-66
2022/05/30 05:10:24;;;;;;;;;3.00;3.00;;;;;13.35;55.61;100925.84;5060164;28;45285;-66
2022/05/30 05:12:51;;;;;;;;;5.00;3.50;;;;;13.41;54.94;100933.59;5040591;28;45372;-66
2022/05/30 05:15:16;;;;;;;;;3.25;3.25;;;;;13.40;54.61;100931.84;5059892;28;45429;-65
2022/05/30 05:17:42;;;;;;;;;4.25;4.25;;;;;13.42;54.65;100932.63;5061376;28;45230;-66
2022/05/30 05:20:07;;;;;;;;;4.50;4.50;;;;;13.40;54.93;100925.59;5060611;28;45321;-64
2022/05/30 05:22:33;;;;;;;;;2.00;2.00;;;;;13.40;54.73;100925.59;5059390;28;45447;-65
2022/05/30 05:24:58;;;;;;;;;4.75;4.75;;;;;13.46;54.70;100936.00;5059833;28;45513;-65
2022/05/30 05:27:24;;;;;;;;;5.00;3.25;;;;;13.48;54.68;100928.72;5059661;28;45469;-65
2022/05/30 05:29:53;;;;;;;;;6.00;6.00;;;;;13.36;54.30;100902.47;5060862;28;46758;-66
2022/05/30 05:32:19;;;;;;;;;5.00;5.00;;;;;13.47;54.52;100922.47;5057892;28;45444;-65
2022/05/30 05:34:44;;;;;;;;;6.50;4.75;;;;;13.49;54.82;100930.47;5059410;28;45202;-65
2022/05/30 05:37:10;;;;;;;;;5.00;4.50;;;;;13.47;54.46;100918.91;5059320;28;45227;-65
2022/05/30 05:39:35;;;;;;;;;4.00;4.00;;;;;13.50;54.66;100924.13;5059218;28;45280;-66
2022/05/30 05:42:00;;;;;;;;;6.00;4.00;;;;;13.60;54.85;100925.38;5063964;28;45316;-66
2022/05/30 05:44:26;;;;;;;;;7.50;4.75;;;;;13.62;54.66;100929.69;5059275;28;45347;-66
2022/05/30 05:46:51;;;;;;;;;4.75;4.75;;;;;13.66;54.00;100938.50;5058973;28;45471;-65
2022/05/30 05:49:16;;;;;;;;;9.00;5.25;;;;;13.66;53.98;100933.09;5040307;28;45321;-65
2022/05/30 05:51:42;;;;;;;;;4.00;4.00;;;;;13.63;54.12;100934.13;5059040;28;45334;-66
2022/05/30 05:54:08;;;;;;;;;3.00;3.00;;;;;13.72;54.34;100938.13;5058994;28;45372;-65
2022/05/30 05:56:34;;;;;;;;;6.25;5.00;;;;;13.77;53.80;100946.00;5058861;28;45446;-65
2022/05/30 05:59:00;;;;;;;;;7.50;5.75;;;;;13.82;53.69;100949.28;5058930;28;46576;-64
2022/05/30 06:01:30;;;;;;;;;7.00;6.00;;;;;13.84;53.45;100937.47;5058257;28;45325;-65
2022/05/30 06:03:57;;;;;;;;;5.25;4.25;;;;;13.81;53.39;100932.25;5035105;28;45537;-65
2022/05/30 06:06:23;;;;;;;;;3.75;3.75;;;;;13.85;53.16;100939.22;5059793;28;45520;-66
2022/05/30 06:08:50;;;;;;;;;6.25;6.25;;;;;13.81;53.28;100940.31;5057600;28;46408;-66
2022/05/30 06:11:16;;;;;;;;;7.00;6.00;;;;;13.88;52.81;100946.22;5058332;28;45444;-66
2022/05/30 06:13:44;;;;;;;;;6.75;4.25;;;;;13.86;52.94;100940.97;5058999;28;45323;-66
2022/05/30 06:16:12;;;;;;;;;4.00;4.00;;;;;13.84;52.86;100936.59;5061037;28;45351;-66
2022/05/30 06:18:38;;;;;;;;;6.00;6.00;;;;;13.92;53.25;100958.59;5058149;28;46059;-66
2022/05/30 06:21:05;;;;;;;;;4.50;4.50;;;;;13.91;52.65;100944.25;5058149;28;45450;-67
2022/05/30 06:23:30;;;;;;;;;5.25;4.00;;;;;13.94;52.97;100941.38;5058963;28;45382;-66
2022/05/30 06:25:57;;;;;;;;;4.00;4.00;;;;;13.98;52.50;100950.16;5062044;28;45426;-65
2022/05/30 06:28:23;;;;;;;;;9.50;5.00;;;;;13.95;52.85;100943.09;5069681;28;45386;-65
2022/05/30 06:30:48;;;;;;;;;6.25;6.25;;;;;13.89;52.71;100918.34;5058335;28;45324;-65
2022/05/30 06:33:13;;;;;;;;;6.75;6.00;;;;;14.01;52.99;100931.13;5058179;28;45518;-66
2022/05/30 06:35:44;;;;;;;;;4.75;4.75;;;;;14.29;52.41;100955.53;5055838;28;45724;-66
2022/05/30 06:38:10;;;;;;;;;5.00;5.00;;;;;14.44;52.18;100950.25;5074101;28;45445;-66
2022/05/30 06:40:35;;;;;;;;;8.00;6.00;;;;;14.54;52.00;100948.75;5068141;28;45300;-66
2022/05/30 06:43:01;;;;;;;;;6.75;5.50;;;;;14.63;51.95;100957.16;5055843;28;45454;-67
2022/05/30 06:45:27;;;;;;;;;7.75;6.00;;;;;14.67;51.50;100958.72;5057370;28;45755;-66
2022/05/30 06:47:53;;;;;;;;;8.00;6.00;;;;;14.71;51.23;100962.13;5058011;28;46904;-67
2022/05/30 06:50:18;;;;;;;;;7.50;5.75;;;;;14.73;51.29;100965.56;5058081;28;45309;-67
2022/05/30 06:52:44;;;;;;;;;4.75;4.00;;;;;14.75;51.28;100959.13;5054672;28;45438;-61
2022/05/30 06:55:09;;;;;;;;;3.00;3.00;;;;;14.77;51.02;100941.03;5056745;28;45236;-60
2022/05/30 07:00:20;;;;;;;;;6.25;6.00;;;;;14.88;50.80;100928.72;5057328;28;45348;-60
2022/05/30 07:02:46;;;;;;;;;7.75;6.00;;;;;14.92;50.42;100935.66;5058148;28;45494;-61
2022/05/30 07:05:12;;;;;;;;;4.75;4.75;;;;;14.91;50.39;100936.59;5051634;28;45355;-59
2022/05/30 07:07:41;;;;;;;;;3.00;3.00;;;;;14.93;50.11;100940.09;5055799;28;46153;-60
2022/05/30 07:10:08;;;;;;;;;4.00;4.00;;;;;14.93;49.82;100940.09;5068368;28;45390;-60
2022/05/30 07:12:34;;;;;;;;;6.00;6.00;;;;;14.98;50.34;100944.22;5047631;28;45332;-60
2022/05/30 07:14:59;;;;;;;;;4.00;4.00;;;;;15.03;50.37;100952.06;5054882;28;45273;-60
2022/05/30 07:17:25;;;;;;;;;5.75;4.75;;;;;15.05;49.41;100952.84;5055016;28;45967;-60
2022/05/30 07:19:51;;;;;;;;;3.50;3.50;;;;;15.10;49.20;100954.28;5062564;28;45352;-60
2022/05/30 07:22:16;;;;;;;;;4.50;4.50;;;;;15.14;48.79;100955.81;5056435;28;45281;-60
2022/05/30 07:24:42;;;;;;;;;4.25;4.25;;;;;15.13;49.04;100942.44;5055244;28;45407;-59
2022/05/30 07:27:08;;;;;;;;;5.75;4.50;;;;;15.23;49.26;100946.28;5056419;28;46264;-61
2022/05/30 07:29:33;;;;;;;;;4.00;2.75;;;;;15.29;48.95;100945.94;5055960;28;45457;-59
2022/05/30 07:32:01;;;;;;;;;6.75;4.00;;;;;15.34;47.97;100938.41;5041066;28;45325;-60
2022/05/30 07:34:26;;;;;;;;;5.75;3.75;;;;;15.35;48.21;100939.28;5040688;28;46322;-61
2022/05/30 07:36:52;;;;;;;;;4.00;4.00;;;;;15.38;48.26;100936.38;5059242;28;46144;-60
2022/05/30 07:39:18;;;;;;;;;7.50;5.75;;;;;15.40;48.00;100945.25;5059176;28;45293;-61
2022/05/30 07:41:44;;;;;;;;;3.75;3.75;;;;;15.40;48.00;100943.41;5063247;28;45241;-60
2022/05/30 07:44:09;;;;;;;;;3.50;3.50;;;;;15.47;47.61;100949.31;5058020;28;46086;-60
2022/05/30 07:46:35;;;;;;;;;3.00;3.00;;;;;15.48;47.43;100942.97;5058924;28;45380;-60
2022/05/30 07:49:01;;;;;;;;;4.00;4.00;;;;;15.57;47.65;100952.34;5059226;28;45481;-60
2022/05/30 07:51:26;;;;;;;;;4.00;4.00;;;;;15.60;47.11;100946.72;5059415;28;45471;-60
2022/05/30 07:53:52;;;;;;;;;4.00;4.00;;;;;15.63;47.04;100935.72;5040742;28;47289;-60
2022/05/30 07:56:18;;;;;;;;;5.00;5.00;;;;;15.56;46.75;100935.28;5058600;28;46108;-60
2022/05/30 07:58:44;;;;;;;;;5.00;5.00;;;;;15.55;47.14;100921.84;5057940;28;45423;-60
2022/05/30 08:01:16;;;;;;;;;7.25;4.50;;;;;15.58;47.00;100943.25;5037532;28;45392;-60
2022/05/30 08:03:42;;;;;;;;;5.00;5.00;;;;;15.65;46.44;100941.91;5053365;28;45527;-61
2022/05/30 08:06:14;;;;;;;;;5.75;4.25;;;;;15.66;46.98;100946.34;5056491;28;46081;-61
2022/05/30 08:08:40;;;;;;;;;8.00;5.00;;;;;15.74;46.15;100950.28;5058901;28;45411;-60
2022/05/30 08:11:07;;;;;;;;;3.00;3.00;;;;;15.75;45.89;100940.34;5058467;28;45673;-60
2022/05/30 08:13:33;;;;;;;;;4.25;4.25;;;;;15.78;44.97;100949.13;5058612;28;45427;-60
2022/05/30 08:15:59;;;;;;;;;4.25;3.25;;;;;15.80;44.70;100941.81;5057726;28;45734;-60
2022/05/30 08:18:25;;;;;;;;;5.00;3.00;;;;;15.83;45.25;100944.28;5059034;28;45395;-60
2022/05/30 08:20:50;;;;;;;;;4.25;4.25;;;;;15.86;45.45;100936.00;5038341;28;45357;-60
2022/05/30 08:23:17;;;;;;;;;4.00;4.00;;;;;15.92;45.49;100932.00;5045004;28;47436;-60
2022/05/30 08:25:43;;;;;;;;;4.00;4.00;;;;;15.93;45.16;100933.75;5064122;28;46146;-60
2022/05/30 08:28:09;;;;;;;;;3.75;3.25;;;;;15.98;45.34;100925.34;5041108;28;45364;-60
2022/05/30 08:30:34;;;;;;;;;3.25;3.00;;;;;16.05;44.68;100932.97;5057655;28;45431;-60
2022/05/30 08:33:00;;;;;;;;;2.25;2.25;;;;;16.09;43.76;100930.91;5058657;28;45384;-61
2022/05/30 08:35:27;;;;;;;;;3.50;2.75;;;;;16.12;43.86;100926.16;5058187;28;46304;-59
2022/05/30 08:37:57;;;;;;;;;2.25;2.25;;;;;16.16;43.49;100930.41;5044437;28;45422;-61
2022/05/30 08:43:13;;;;;;;;;2.75;2.75;;;;;16.13;43.68;100936.03;5063561;28;45332;-61
2022/05/30 08:45:40;;;;;;;;;2.50;2.00;;;;;16.13;43.60;100938.72;5056786;28;45364;-61
2022/05/30 08:48:12;;;;;;;;;3.00;3.00;;;;;16.11;43.32;100937.09;5057446;28;45743;-61
2022/05/30 08:51:06;;;;;;;;;2.00;2.00;;;;;16.13;43.26;100925.22;5058186;28;45313;-61
2022/05/30 08:53:40;;;;;;;;;2.00;2.00;;;;;16.18;42.14;100933.00;5058071;28;45415;-61
2022/05/30 08:56:28;;;;;;;;;1.00;1.00;;;;;16.14;41.94;100924.25;5057842;28;46206;-61
2022/05/30 08:59:24;;;;;;;;;7.00;6.00;;;;;16.18;42.67;100928.47;5058585;28;45344;-61
2022/05/30 09:01:56;;;;;;;;;4.25;3.25;;;;;16.25;42.74;100921.66;5059322;28;45506;-61
2022/05/30 09:04:47;;;;;;;;;3.75;3.75;;;;;16.32;42.47;100918.59;5068082;28;45346;-61
2022/05/30 09:07:16;;;;;;;;;4.00;1.50;;;;;16.37;41.54;100914.59;5041445;28;47110;-61
2022/05/30 09:09:47;;;;;;;;;2.00;2.00;;;;;16.42;41.53;100923.25;5059693;28;45265;-61
2022/05/30 09:12:27;;;;;;;;;1.00;1.00;;;;;16.45;40.98;100927.59;5058798;28;45518;-60
2022/05/30 09:15:01;;;;;;;;;3.00;1.00;;;;;16.43;41.42;100919.56;5059458;28;45460;-61
2022/05/30 09:17:39;;;;;;;;;2.00;2.00;;;;;16.49;40.99;100930.00;5058982;28;46344;-61
2022/05/30 09:20:10;;;;;;;;;2.00;2.00;;;;;16.53;41.78;100922.53;5058784;28;45403;-61
2022/05/30 09:22:38;;;;;;;;;1.50;1.50;;;;;16.56;41.78;100916.91;5059409;28;45404;-61
2022/05/30 09:27:49;;;;;;;;;3.00;2.00;;;;;16.63;41.71;100918.25;5059269;28;45877;-61
2022/05/30 09:30:21;;;;;;;;;3.25;2.00;;;;;16.68;41.13;100915.22;5059013;28;45333;-60
2022/05/30 09:33:06;;;;;;;;;1.00;1.00;;;;;16.68;39.89;100905.28;5058395;28;45343;-61
2022/05/30 09:35:33;;;;;;;;;1.25;1.25;;;;;16.71;40.09;100902.38;5059422;28;45279;-60
2022/05/30 09:38:17;;;;;;;;;2.75;2.75;;;;;16.67;39.69;100906.28;5057843;28;46587;-60
2022/05/30 09:40:54;;;;;;;;;4.00;4.00;;;;;16.66;40.21;100901.81;5046061;28;45219;-61
2022/05/30 09:43:41;;;;;;;;;3.00;3.00;;;;;16.65;40.52;100891.97;5059028;28;45458;-60
2022/05/30 09:46:16;;;;;;;;;4.00;4.00;;;;;16.66;40.35;100895.53;5058718;28;45371;-60
2022/05/30 09:49:02;;;;;;;;;6.25;4.50;;;;;16.66;40.54;100898.25;5044259;28;45703;-61
2022/05/30 09:51:39;;;;;;;;;6.75;5.00;;;;;16.69;41.26;100901.59;5061966;28;45522;-61
2022/05/30 09:54:09;;;;;;;;;3.00;3.00;;;;;16.72;40.21;100901.41;5058950;28;45380;-60
2022/05/30 09:56:40;;;;;;;;;3.00;3.00;;;;;16.73;40.04;100892.31;5058845;28;45474;-59
2022/05/30 09:59:07;;;;;;;;;1.00;1.00;;;;;16.74;38.48;100899.47;5058373;28;46230;-60
2022/05/30 10:01:36;;;;;;;;;2.00;2.00;;;;;16.71;39.17;100898.78;5058711;28;45479;-60
2022/05/30 10:04:23;;;;;;;;;4.00;2.75;;;;;16.72;38.87;100893.28;5045874;28;45385;-60
2022/05/30 10:07:06;;;;;;;;;2.25;1.75;;;;;16.66;38.97;100879.31;5058980;28;45311;-60
2022/05/30 10:09:35;;;;;;;;;2.50;2.00;;;;;16.80;38.60;100892.75;5059013;28;46164;-60
2022/05/30 10:12:02;;;;;;;;;2.00;2.00;;;;;16.84;38.98;100888.84;5058228;28;45329;-60
2022/05/30 10:14:32;;;;;;;;;2.00;2.00;;;;;16.84;38.80;100889.69;5058318;28;45288;-62
2022/05/30 10:17:09;;;;;;;;;2.00;2.00;;;;;16.84;39.36;100894.28;5058353;28;45464;-61
2022/05/30 10:19:34;;;;;;;;;4.50;2.75;;;;;16.90;39.91;100892.00;5058136;28;46080;-61
2022/05/30 10:28:52;;;;;;;;;1.00;1.00;;;;;17.15;38.52;100871.31;5057837;28;45364;-61
2022/05/30 10:31:43;;;;;;;;;2.00;2.00;;;;;17.22;38.58;100887.00;5057798;28;46163;-60
2022/05/30 10:34:18;;;;;;;;;1.00;1.00;;;;;17.30;38.80;100878.34;5057873;28;45479;-61
2022/05/30 10:37:05;;;;;;;;;1.50;1.50;;;;;17.43;38.87;100878.34;5058262;28;45303;-60
2022/05/30 10:39:54;;;;;;;;;3.75;2.00;;;;;17.47;38.98;100877.13;5057080;28;45478;-59
2022/05/30 10:42:28;;;;;;;;;4.25;2.00;;;;;17.63;38.67;100886.78;5053271;28;46353;-60
2022/05/30 10:45:01;;;;;;;;;3.75;2.00;;;;;17.73;37.57;100898.69;5057426;28;45450;-60
2022/05/30 10:47:45;;;;;;;;;2.00;2.00;;;;;17.84;38.49;100900.63;5056993;28;45614;-60
2022/05/30 10:50:20;;;;;;;;;2.00;2.00;;;;;17.95;37.49;100883.56;5050575;28;45305;-61
2022/05/30 10:53:07;;;;;;;;;0.00;0.00;;;;;18.02;36.57;100882.97;5039860;28;46636;-61
2022/05/30 10:55:37;;;;;;;;;2.00;2.00;;;;;18.12;37.06;100891.28;5058130;28;45403;-60
2022/05/30 10:58:14;;;;;;;;;1.00;1.00;;;;;18.21;36.28;100885.16;5057370;28;45491;-61
2022/05/30 11:00:47;;;;;;;;;3.00;1.25;;;;;18.25;35.39;100883.09;5057015;28;45339;-61
2022/05/30 11:03:25;;;;;;;;;1.00;1.00;;;;;18.31;35.61;100878.06;5059490;28;45395;-60
2022/05/30 11:06:05;;;;;;;;;2.50;2.50;;;;;18.40;35.45;100882.78;5061106;28;45325;-61
2022/05/30 11:08:34;;;;;;;;;3.75;3.25;;;;;18.50;36.11;100883.81;5061326;28;45358;-62
2022/05/30 11:11:09;;;;;;;;;1.75;1.75;;;;;18.64;36.35;100873.75;5061630;28;45401;-61
2022/05/30 11:13:45;;;;;;;;;7.00;3.75;;;;;18.77;35.16;100877.28;5060072;28;45366;-60
2022/05/30 11:16:31;;;;;;;;;2.00;2.00;;;;;18.92;36.22;100886.94;5059796;28;45344;-61
2022/05/30 11:19:06;;;;;;;;;2.25;2.25;;;;;19.00;34.81;100879.03;5061433;28;45329;-61
2022/05/30 11:21:45;;;;;;;;;3.00;2.00;;;;;19.03;34.59;100878.81;5061385;28;45522;-61
2022/05/30 11:24:11;;;;;;;;;1.75;1.75;;;;;19.03;34.49;100875.22;5061041;28;45312;-60
2022/05/30 11:27:10;;;;;;;;;3.00;3.00;;;;;19.06;34.33;100866.81;5060958;28;45875;-61
2022/05/30 11:30:00;;;;;;;;;1.50;1.50;;;;;19.14;33.67;100861.66;5060917;28;45490;-62
2022/05/30 11:32:45;;;;;;;;;2.25;2.25;;;;;19.30;34.49;100862.16;5041689;28;45478;-61
2022/05/30 11:35:32;;;;;;;;;2.25;2.25;;;;;19.49;34.16;100857.00;5061099;28;45479;-61
2022/05/30 11:38:16;;;;;;;;;5.75;3.00;;;;;19.72;34.48;100860.56;5061091;28;45296;-62
2022/05/30 11:41:00;;;;;;;;;1.50;1.50;;;;;19.89;34.49;100857.31;5065542;28;45338;-61
2022/05/30 11:43:44;;;;;;;;;2.75;2.00;;;;;20.06;33.91;100864.09;5060835;28;45343;-62
2022/05/30 11:46:27;;;;;;;;;3.25;2.00;;;;;20.18;32.89;100857.59;5060619;28;46231;-61
2022/05/30 11:48:59;;;;;;;;;3.00;1.00;;;;;20.29;32.72;100860.28;5060708;28;45236;-60
2022/05/30 11:51:30;;;;;;;;;1.75;1.75;;;;;20.37;32.07;100862.38;5060955;28;45450;-61
2022/05/30 11:54:11;;;;;;;;;2.00;1.75;;;;;20.46;32.59;100856.16;5060604;28;45400;-60
2022/05/30 11:56:40;;;;;;;;;2.50;2.00;;;;;20.45;31.99;100853.56;5042287;28;48711;-62
2022/05/30 11:59:40;;;;;;;;;1.50;1.50;;;;;20.35;31.97;100853.47;5060120;28;45546;-61
2022/05/30 12:02:12;;;;;;;;;4.00;2.75;;;;;20.26;32.38;100851.50;5060521;28;45344;-61
2022/05/30 12:05:02;;;;;;;;;1.00;1.00;;;;;20.17;32.49;100861.31;5060312;28;45428;-61
2022/05/30 12:07:42;;;;;;;;;1.00;1.00;;;;;20.11;32.32;100850.06;5059253;28;45352;-61
2022/05/30 12:10:26;;;;;;;;;2.25;2.00;;;;;19.96;32.65;100855.81;5060565;28;45596;-62
2022/05/30 12:13:18;;;;;;;;;2.00;2.00;;;;;19.89;33.06;100853.72;5060434;28;45303;-61
2022/05/30 12:16:07;;;;;;;;;1.75;1.75;;;;;19.81;32.90;100853.50;5059322;28;45370;-62
2022/05/30 12:24:15;;;;;;;;;2.00;1.00;;;;;19.49;32.62;100840.66;5060270;28;45371;-61
2022/05/30 12:27:00;;;;;;;;;2.75;2.75;;;;;19.40;32.88;100837.78;5060124;28;45494;-61
2022/05/30 12:29:44;;;;;;;;;1.00;1.00;;;;;19.37;33.27;100835.34;5059875;28;46447;-60
2022/05/30 12:32:34;;;;;;;;;3.00;1.25;;;;;19.38;33.00;100837.94;5059736;28;45507;-60
2022/05/30 12:35:10;;;;;;;;;2.00;2.00;;;;;19.44;33.30;100840.16;5060284;28;45383;-61
2022/05/30 12:37:41;;;;;;;;;2.00;2.00;;;;;19.47;33.26;100842.69;5059275;28;45496;-60
2022/05/30 12:40:25;;;;;;;;;2.00;2.00;;;;;19.55;32.91;100842.03;5061589;28;46223;-60
2022/05/30 12:43:15;;;;;;;;;1.75;1.75;;;;;19.58;32.13;100842.63;5046904;28;45400;-61
2022/05/30 12:45:48;;;;;;;;;2.00;2.00;;;;;19.61;32.36;100839.69;5059703;28;45382;-61
2022/05/30 12:48:19;;;;;;;;;2.00;2.00;;;;;19.71;32.99;100837.06;5059711;28;45525;-61
2022/05/30 12:50:44;;;;;;;;;2.00;1.00;;;;;19.80;32.17;100830.88;5059936;28;47124;-61
2022/05/30 12:53:12;;;;;;;;;0.75;0.75;;;;;19.87;32.04;100833.94;5059684;28;45347;-61
2022/05/30 12:55:50;;;;;;;;;2.00;2.00;;;;;20.05;31.59;100837.84;5059920;28;45288;-62
2022/05/30 12:58:51;;;;;;;;;3.00;2.00;;;;;20.23;31.60;100833.59;5059667;28;45354;-61
2022/05/30 13:01:26;;;;;;;;;2.00;2.00;;;;;20.51;31.04;100818.47;5059424;28;46406;-60
2022/05/30 13:04:06;;;;;;;;;3.50;2.00;;;;;20.94;29.63;100826.50;5059505;28;45378;-59
2022/05/30 13:06:43;;;;;;;;;1.50;1.50;;;;;21.20;29.47;100816.06;5057260;28;45873;-67
2022/05/30 13:09:40;;;;;;;;;2.00;2.00;;;;;21.65;29.56;100815.66;5059529;28;45377;-67
2022/05/30 13:12:12;;;;;;;;;2.00;2.00;;;;;22.04;29.06;100809.28;5036916;28;47091;-67
2022/05/30 13:14:37;;;;;;;;;1.75;1.75;;;;;22.41;28.83;100812.16;5059382;28;45469;-67
2022/05/30 13:17:24;;;;;;;;;2.00;2.00;;;;;22.78;28.72;100806.84;5059569;28;45428;-67
2022/05/30 13:19:59;;;;;;;;;2.00;2.00;;;;;22.94;26.79;100803.50;5059690;28;45301;-67
2022/05/30 13:22:31;;;;;;;;;1.50;1.50;;;;;22.80;27.34;100802.06;5059473;28;45494;-67
2022/05/30 13:24:57;;;;;;;;;1.50;1.50;;;;;22.75;27.41;100795.31;5058625;28;45388;-67
2022/05/30 13:27:25;;;;;;;;;0.50;0.50;;;;;22.79;27.52;100803.09;5059646;28;45419;-69
2022/05/30 13:29:50;;;;;;;;;3.50;1.50;;;;;22.56;27.87;100799.78;5059281;28;45530;-67
2022/05/30 13:32:20;;;;;;;;;2.50;2.50;;;;;22.40;28.45;100813.19;5059247;28;45855;-67
2022/05/30 13:34:53;;;;;;;;;2.00;2.00;;;;;22.21;27.47;100804.97;5059436;28;45347;-67
2022/05/30 13:37:24;;;;;;;;;2.00;2.00;;;;;22.10;27.89;100802.41;5040959;28;45413;-68
2022/05/30 13:39:53;;;;;;;;;3.00;2.00;;;;;22.00;27.83;100793.34;5059162;28;45248;-67
2022/05/30 13:42:18;;;;;;;;;2.00;2.00;;;;;21.99;28.16;100800.66;5053410;28;46197;-68
2022/05/30 13:44:43;;;;;;;;;1.25;1.25;;;;;22.36;27.70;100799.97;5058757;28;45301;-68
2022/05/30 13:47:13;;;;;;;;;1.75;1.75;;;;;22.84;27.01;100792.56;5059050;28;45545;-67
2022/05/30 13:49:43;;;;;;;;;3.25;2.25;;;;;23.17;26.73;100796.63;5059169;28;45785;-68
2022/05/30 13:52:21;;;;;;;;;2.25;2.25;;;;;23.20;26.07;100798.22;5045224;28;45360;-67
2022/05/30 13:54:54;;;;;;;;;1.00;1.00;;;;;23.46;26.19;100784.72;5059173;28;45414;-68
2022/05/30 13:57:19;;;;;;;;;2.00;2.00;;;;;23.53;25.64;100794.91;5058782;28;45377;-68
2022/05/30 13:59:50;;;;;;;;;0.75;0.75;;;;;24.04;26.38;100788.81;5054475;28;45283;-66
2022/05/30 14:02:29;;;;;;;;;2.75;1.50;;;;;24.67;25.51;100787.88;5057509;28;45357;-69
2022/05/30 14:04:59;;;;;;;;;3.50;2.00;;;;;25.28;24.77;100782.25;5058475;28;45456;-67
2022/05/30 14:07:41;;;;;;;;;2.75;2.00;;;;;25.85;23.53;100772.38;5058917;28;45408;-69
2022/05/30 14:10:10;;;;;;;;;2.25;2.25;;;;;26.70;22.57;100768.31;5058485;28;46152;-67
2022/05/30 14:12:42;;;;;;;;;2.00;2.00;;;;;27.43;21.74;100751.63;5058139;28;46225;-68
2022/05/30 14:15:10;;;;;;;;;2.00;2.00;;;;;27.97;21.14;100761.84;5057961;28;45459;-67
2022/05/30 14:17:36;;;;;;;;;2.00;2.00;;;;;27.91;20.93;100768.06;5052707;28;45245;-67
2022/05/30 14:20:13;;;;;;;;;1.00;1.00;;;;;27.57;20.90;100760.16;5058363;28;45406;-68
2022/05/30 14:23:04;;;;;;;;;2.75;2.00;;;;;27.09;21.86;100751.06;5057958;28;46349;-66
2022/05/30 14:25:37;;;;;;;;;2.75;1.00;;;;;26.58;22.63;100766.09;5058679;28;45325;-68
2022/05/30 14:28:11;;;;;;;;;1.50;1.25;;;;;26.15;22.88;100770.00;5058634;28;45316;-67
2022/05/30 14:30:36;;;;;;;;;4.25;1.00;;;;;25.75;23.57;100766.16;5058205;28;45274;-68
2022/05/30 14:33:17;;;;;;;;;1.00;1.00;;;;;25.39;23.69;100773.72;5058002;28;46300;-68
2022/05/30 14:35:42;;;;;;;;;3.00;1.75;;;;;24.98;24.29;100764.44;5058659;28;45340;-67
2022/05/30 14:38:11;;;;;;;;;1.00;1.00;;;;;24.79;24.80;100770.97;5056673;28;45307;-69
2022/05/30 14:40:49;;;;;;;;;2.00;2.00;;;;;24.39;24.05;100760.56;5063122;28;45602;-67
2022/05/30 14:43:44;;;;;;;;;1.75;1.75;;;;;24.12;24.93;100777.94;5058172;28;45451;-68
2022/05/30 14:46:12;;;;;;;;;1.75;1.75;;;;;23.84;24.82;100776.28;5057618;28;45402;-69
2022/05/30 14:48:49;;;;;;;;;1.50;1.50;;;;;23.52;25.63;100771.31;5053727;28;45444;-68
2022/05/30 14:51:21;;;;;;;;;2.00;2.00;;;;;23.34;25.68;100773.94;5056095;28;45577;-68
2022/05/30 14:53:50;;;;;;;;;5.75;3.00;;;;;23.21;26.32;100770.72;5041499;28;45444;-67
2022/05/30 14:56:22;;;;;;;;;2.25;2.25;;;;;23.11;26.13;100774.50;5035440;28;45479;-68
2022/05/30 14:59:12;;;;;;;;;2.75;2.75;;;;;22.98;26.21;100764.75;5053800;28;45340;-66
2022/05/30 15:01:40;;;;;;;;;2.75;1.75;;;;;22.98;25.93;100774.81;5056176;28;45440;-67
2022/05/30 15:04:06;;;;;;;;;1.00;1.00;;;;;22.96;26.15;100772.25;5056292;28;45393;-68
2022/05/30 15:06:42;;;;;;;;;3.25;1.50;;;;;22.84;26.62;100780.78;5055455;28;45273;-67
2022/05/30 15:09:15;;;;;;;;;1.50;1.50;;;;;22.72;26.75;100771.84;5056602;28;45304;-68
2022/05/30 15:11:42;;;;;;;;;1.00;1.00;;;;;22.64;27.46;100767.13;5052379;28;45556;-67
2022/05/30 15:14:15;;;;;;;;;1.00;1.00;;;;;22.69;27.59;100771.28;5053705;28;46338;-67
2022/05/30 15:16:40;;;;;;;;;1.00;1.00;;;;;22.72;27.05;100762.78;5044162;28;45824;-67
2022/05/30 15:19:06;;;;;;;;;1.75;1.75;;;;;22.69;26.58;100766.69;5038379;28;45427;-68
2022/05/30 15:21:34;;;;;;;;;2.75;2.75;;;;;22.74;26.67;100769.88;5055969;28;45519;-66
2022/05/30 15:24:04;;;;;;;;;2.75;2.75;;;;;22.76;26.16;100767.00;5056181;28;45459;-68
2022/05/30 15:26:30;;;;;;;;;2.00;2.00;;;;;22.69;26.39;100772.16;5054834;28;45384;-68
2022/05/30 15:28:55;;;;;;;;;4.75;2.75;;;;;22.60;26.92;100752.03;5038018;28;45722;-69
2022/05/30 15:31:25;;;;;;;;;1.50;1.50;;;;;22.80;26.07;100774.72;5036722;28;45254;-68
2022/05/30 15:33:50;;;;;;;;;3.75;3.75;;;;;23.20;26.26;100759.94;5053641;28;46156;-68
2022/05/30 15:36:18;;;;;;;;;2.25;2.25;;;;;23.74;25.46;100765.38;5041230;28;45723;-67
2022/05/30 15:38:47;;;;;;;;;3.00;3.00;;;;;24.38;25.09;100758.84;5061967;28;45421;-68
2022/05/30 15:41:13;;;;;;;;;2.00;2.00;;;;;24.87;24.74;100754.56;5058370;28;45698;-67
2022/05/30 15:43:39;;;;;;;;;1.00;1.00;;;;;25.11;24.62;100753.88;5055763;28;45408;-66
2022/05/30 15:46:07;;;;;;;;;1.00;1.00;;;;;25.27;24.80;100753.94;5058363;28;45406;-66
2022/05/30 15:48:33;;;;;;;;;2.00;1.50;;;;;25.37;24.00;100753.81;5061565;28;45454;-67
2022/05/30 15:50:58;;;;;;;;;1.75;1.75;;;;;25.46;23.42;100743.72;5057789;28;45640;-67
2022/05/30 15:59:17;;;;;;;;;2.75;2.75;;;;;25.18;23.62;100749.44;4963834;28;45716;-66
2022/05/30 16:01:43;;;;;;;;;1.25;1.25;;;;;25.03;23.96;100745.59;5007180;28;46339;-68
2022/05/30 16:04:09;;;;;;;;;1.25;1.25;;;;;24.88;24.34;100739.84;5058789;28;46481;-66
2022/05/30 16:06:37;;;;;;;;;0.00;0.00;;;;;24.73;23.17;100751.56;5058876;28;45249;-67
2022/05/30 16:09:09;;;;;;;;;2.00;2.00;;;;;24.33;23.36;100739.25;5059325;28;45375;-66
2022/05/30 16:11:35;;;;;;;;;1.50;1.50;;;;;23.90;24.07;100747.44;5059093;28;45355;-66
2022/05/30 16:14:01;;;;;;;;;3.25;2.50;;;;;23.62;24.79;100742.00;5059434;28;46896;-67
2022/05/30 16:16:27;;;;;;;;;2.25;2.25;;;;;23.45;25.06;100739.19;5058528;28;45347;-66
2022/05/30 16:18:52;;;;;;;;;2.00;2.00;;;;;23.42;25.59;100747.69;5059492;28;45218;-66
2022/05/30 16:21:21;;;;;;;;;1.50;1.50;;;;;23.42;25.70;100747.69;5058026;28;45382;-66
2022/05/30 16:23:48;;;;;;;;;4.75;4.00;;;;;23.52;25.42;100723.91;5059963;28;46191;-67
2022/05/30 16:26:27;;;;;;;;;3.00;3.00;;;;;23.85;25.47;100741.53;5060087;28;45372;-66
2022/05/30 16:28:53;;;;;;;;;2.00;2.00;;;;;24.20;25.15;100732.44;5061156;28;45360;-67
2022/05/30 16:31:19;;;;;;;;;2.50;1.25;;;;;24.46;24.90;100727.91;5059500;28;45579;-65
2022/05/30 16:33:44;;;;;;;;;1.00;1.00;;;;;24.76;24.73;100727.41;5059074;28;45470;-66
2022/05/30 16:36:11;;;;;;;;;1.00;1.00;;;;;24.91;24.04;100724.09;5060160;28;45300;-66
2022/05/30 16:38:36;;;;;;;;;1.50;1.50;;;;;24.92;24.29;100726.69;5060699;28;45328;-67
2022/05/30 16:41:03;;;;;;;;;3.25;3.25;;;;;24.94;24.57;100721.03;5064717;28;45518;-66
2022/05/30 16:43:29;;;;;;;;;3.00;2.00;;;;;25.01;24.23;100700.19;5059641;28;45340;-66